createdAt,value
2023-03-23T15:59:08.692Z,93.50
2023-03-23T16:01:39.376Z,93.20
2023-03-23T16:04:10.636Z,93.50
2023-03-23T16:06:38.520Z,93.60
2023-03-23T16:09:06.851Z,93.60
2023-03-23T16:11:33.966Z,93.60
2023-03-23T16:14:01.156Z,93.90
2023-03-23T16:16:43.363Z,94.10
2023-03-23T16:19:13.634Z,93.60
2023-03-23T16:21:41.230Z,94.20
2023-03-23T16:24:09.536Z,93.70
2023-03-23T16:26:37.725Z,93.40
2023-03-23T16:29:23.859Z,93.90
2023-03-23T16:31:55.899Z,94.00
2023-03-23T16:34:22.908Z,94.10
2023-03-23T16:36:49.794Z,94.00
2023-03-23T16:39:18.996Z,93.70
2023-03-23T16:41:46.121Z,93.60
2023-03-23T16:44:13.445Z,94.40
2023-03-23T16:46:40.428Z,94.30
2023-03-23T16:49:07.270Z,94.50
2023-03-23T16:51:35.392Z,94.40
2023-03-23T16:54:02.232Z,94.60
2023-03-23T16:56:29.219Z,94.30
2023-03-23T16:58:56.287Z,94.60
2023-03-23T17:01:23.147Z,94.60
2023-03-23T17:03:50.382Z,95.00
2023-03-23T17:06:17.312Z,94.70
2023-03-23T17:08:44.393Z,94.80
2023-03-23T17:11:11.664Z,95.00
2023-03-23T17:13:38.922Z,95.00
2023-03-23T17:16:06.270Z,95.70
2023-03-23T17:18:33.396Z,96.00
2023-03-23T17:21:00.304Z,96.10
2023-03-23T17:23:27.297Z,95.90
2023-03-23T17:25:54.356Z,95.70
2023-03-23T17:28:21.675Z,95.60
2023-03-23T17:30:49.182Z,95.60
2023-03-23T17:33:16.231Z,95.80
2023-03-23T17:35:45.537Z,95.90
2023-03-23T17:38:13.051Z,95.70
2023-03-23T17:40:39.998Z,95.90
2023-03-23T17:43:07.076Z,95.40
2023-03-23T17:45:34.446Z,95.40
2023-03-23T17:48:01.842Z,95.60
2023-03-23T17:50:29.000Z,95.50
2023-03-23T17:52:57.164Z,95.60
2023-03-23T17:55:24.114Z,95.70
2023-03-23T17:57:51.066Z,95.70
2023-03-23T18:00:19.512Z,95.80
2023-03-23T18:02:46.621Z,95.90
2023-03-23T18:05:14.434Z,95.90
2023-03-23T18:07:41.420Z,96.00
2023-03-23T18:10:12.494Z,96.10
2023-03-23T18:12:40.987Z,96.00
2023-03-23T18:15:09.203Z,96.20
2023-03-23T18:17:36.437Z,96.10
2023-03-23T18:20:05.231Z,96.60
2023-03-23T18:22:32.474Z,96.50
2023-03-23T18:24:59.491Z,96.70
2023-03-23T18:27:26.506Z,96.80
2023-03-23T18:29:53.493Z,96.90
2023-03-23T18:32:21.015Z,97.10
2023-03-23T18:34:48.689Z,97.20
2023-03-23T18:37:16.191Z,96.80
2023-03-23T18:39:43.295Z,96.90
2023-03-23T18:42:10.257Z,96.90
2023-03-23T18:44:37.556Z,96.70
2023-03-23T18:47:04.762Z,96.70
2023-03-23T18:49:33.432Z,96.60
2023-03-23T18:52:00.631Z,96.60
2023-03-23T18:54:29.160Z,96.80
2023-03-23T18:57:00.361Z,96.90
2023-03-23T18:59:30.547Z,97.00
2023-03-23T19:01:58.141Z,97.00
2023-03-23T19:04:25.729Z,97.00
2023-03-23T19:06:52.748Z,97.00
2023-03-23T19:09:19.985Z,96.90
2023-03-23T19:11:47.339Z,96.70
2023-03-23T19:14:14.433Z,96.60
2023-03-23T19:16:42.019Z,96.50
2023-03-23T19:19:09.429Z,96.50
2023-03-23T19:21:38.873Z,96.60
2023-03-23T19:24:07.814Z,96.50
2023-03-23T19:26:40.328Z,96.50
2023-03-23T19:29:26.140Z,96.40
2023-03-23T19:31:57.681Z,96.20
2023-03-23T19:34:27.506Z,96.50
2023-03-23T19:37:03.243Z,96.50
2023-03-23T19:39:33.195Z,96.30
2023-03-23T19:42:00.424Z,96.50
2023-03-23T19:44:28.558Z,96.30
2023-03-23T19:46:56.847Z,96.40
2023-03-23T19:49:25.013Z,96.50
2023-03-23T19:52:06.484Z,96.30
2023-03-23T19:54:36.725Z,96.20
2023-03-23T19:57:04.096Z,96.00
2023-03-23T19:59:31.607Z,95.90
2023-03-23T20:01:58.772Z,95.80
2023-03-23T20:04:26.323Z,95.80
2023-03-23T20:06:56.994Z,95.90
2023-03-23T20:09:25.348Z,95.80
2023-03-23T20:11:53.549Z,96.00
2023-03-23T20:14:21.434Z,96.00
2023-03-23T20:16:48.678Z,95.80
2023-03-23T20:19:16.524Z,95.90
2023-03-23T20:21:43.655Z,95.90
2023-03-23T20:24:11.485Z,96.00
2023-03-23T20:26:42.469Z,95.80
2023-03-23T20:29:10.540Z,96.10
2023-03-23T20:31:40.814Z,96.20
2023-03-23T20:34:11.649Z,96.20
2023-03-23T20:36:45.387Z,96.10
2023-03-23T20:39:18.988Z,96.40
2023-03-23T20:41:48.376Z,96.50
2023-03-23T20:44:16.138Z,96.60
2023-03-23T20:46:45.233Z,96.70
2023-03-23T20:49:13.077Z,96.80
2023-03-23T20:51:40.077Z,97.00
2023-03-23T20:54:07.212Z,97.20
2023-03-23T20:56:34.867Z,97.00
2023-03-23T20:59:02.472Z,96.70
2023-03-23T21:01:29.890Z,96.90
2023-03-23T21:03:57.969Z,97.10
2023-03-23T21:06:28.310Z,97.20
2023-03-23T21:08:57.134Z,97.60
2023-03-23T21:11:26.535Z,97.50
2023-03-23T21:13:56.062Z,97.40
2023-03-23T21:16:24.514Z,97.50
2023-03-23T21:18:51.603Z,97.60
2023-03-23T21:21:19.002Z,97.50
2023-03-23T21:23:47.152Z,97.60
2023-03-23T21:26:17.662Z,97.60
2023-03-23T21:28:45.520Z,97.50
2023-03-23T21:31:13.516Z,97.60
2023-03-23T21:33:40.741Z,97.50
2023-03-23T21:36:08.163Z,97.40
2023-03-23T21:38:35.227Z,97.50
2023-03-23T21:41:08.844Z,98.20
2023-03-23T21:43:36.133Z,97.70
2023-03-23T21:46:05.610Z,98.00
2023-03-23T21:48:35.229Z,98.30
2023-03-23T21:51:11.435Z,98.80
2023-03-23T21:53:38.520Z,99.00
2023-03-23T21:56:07.401Z,98.20
2023-03-23T21:58:34.674Z,98.10
2023-03-23T22:01:02.225Z,97.90
2023-03-23T22:03:34.699Z,97.90
2023-03-23T22:06:18.925Z,97.90
2023-03-23T22:08:46.847Z,97.90
2023-03-23T22:11:19.712Z,97.80
2023-03-23T22:13:46.853Z,97.90
2023-03-23T22:16:17.780Z,97.90
2023-03-23T22:18:46.249Z,98.10
2023-03-23T22:21:14.352Z,98.30
2023-03-23T22:23:43.323Z,98.50
2023-03-23T22:26:11.076Z,98.30
2023-03-23T22:28:39.876Z,98.40
2023-03-23T22:31:21.543Z,97.90
2023-03-23T22:33:51.226Z,98.00
2023-03-23T22:36:18.430Z,98.10
2023-03-23T22:38:47.162Z,98.00
2023-03-23T22:41:30.539Z,98.00
2023-03-23T22:43:58.004Z,98.10
2023-03-23T22:46:25.575Z,98.20
2023-03-23T22:48:52.965Z,98.10
2023-03-23T22:51:21.290Z,98.50
2023-03-23T22:53:49.901Z,98.70
2023-03-23T22:56:17.168Z,98.80
2023-03-23T22:58:44.554Z,98.40
2023-03-23T23:01:14.588Z,98.60
2023-03-23T23:03:42.123Z,99.00
2023-03-23T23:06:11.314Z,99.10
2023-03-23T23:08:39.180Z,99.20
2023-03-23T23:11:07.356Z,99.30
2023-03-23T23:13:34.581Z,99.20
2023-03-23T23:16:02.149Z,99.20
2023-03-23T23:18:30.995Z,99.20
2023-03-23T23:21:00.688Z,99.20
2023-03-23T23:23:28.473Z,99.40
2023-03-23T23:25:56.333Z,99.80
2023-03-23T23:28:24.158Z,99.90
2023-03-23T23:30:52.034Z,99.90
2023-03-23T23:33:20.497Z,99.90
2023-03-23T23:35:48.617Z,99.90
2023-03-23T23:38:16.663Z,99.90
2023-03-23T23:40:45.291Z,99.90
2023-03-23T23:43:14.455Z,99.90
2023-03-23T23:45:41.689Z,99.90
2023-03-23T23:48:09.253Z,99.90
2023-03-23T23:50:36.595Z,99.90
2023-03-23T23:53:04.923Z,99.90
2023-03-23T23:55:32.395Z,99.90
2023-03-23T23:57:59.973Z,99.90
